Time;durP1;ratioP1;P1;durP2;ratioP2;P2;SDS_P1;SDS_P2;PMS_P1;PMS_P2;Temp;Humidity;BMP_temperature;BMP_pressure;BME280_temperature;BME280_humidity;BME280_pressure;Samples;Min_cycle;Max_cycle;Signal;HPM_P1;HPM_P2
2023/10/14 00:01:10;;;;;;;;;0.00;0.00;;;;;;;;5029454;28;8800;-79
2023/10/14 00:03:41;;;;;;;;;0.80;0.00;;;;;;;;5028969;28;8879;-79
2023/10/14 00:06:11;;;;;;;;;0.00;0.00;;;;;;;;5028880;28;8986;-80
2023/10/14 00:08:52;;;;;;;;;0.80;0.00;;;;;;;;5031478;28;8983;-78
2023/10/14 00:11:21;;;;;;;;;0.00;0.00;;;;;;;;5031626;28;8856;-79
2023/10/14 00:13:49;;;;;;;;;0.00;0.00;;;;;;;;5032419;28;8872;-80
2023/10/14 00:16:29;;;;;;;;;0.00;0.00;;;;;;;;5031835;28;8987;-78
2023/10/14 00:18:57;;;;;;;;;0.00;0.00;;;;;;;;5029884;28;8848;-83
2023/10/14 00:21:24;;;;;;;;;0.00;0.00;;;;;;;;5028174;28;8856;-80
2023/10/14 00:23:55;;;;;;;;;0.00;0.00;;;;;;;;5028332;28;8886;-78
2023/10/14 00:26:24;;;;;;;;;0.00;0.00;;;;;;;;5030127;28;9663;-79
2023/10/14 00:28:54;;;;;;;;;0.00;0.00;;;;;;;;5028855;28;8894;-79
2023/10/14 00:31:23;;;;;;;;;2.20;0.00;;;;;;;;5027891;28;8809;-81
2023/10/14 00:33:53;;;;;;;;;0.00;0.00;;;;;;;;5028159;28;8868;-82
2023/10/14 00:36:21;;;;;;;;;0.00;0.00;;;;;;;;5028872;28;8864;-81
2023/10/14 00:38:55;;;;;;;;;0.00;0.00;;;;;;;;5024143;28;8883;-85
2023/10/14 00:41:26;;;;;;;;;1.00;1.00;;;;;;;;5028361;28;8894;-81
2023/10/14 00:43:54;;;;;;;;;0.00;0.00;;;;;;;;5028047;28;8954;-81
2023/10/14 00:46:23;;;;;;;;;0.00;0.00;;;;;;;;5028797;28;8856;-83
2023/10/14 00:48:58;;;;;;;;;0.00;0.00;;;;;;;;5028125;28;8855;-81
2023/10/14 00:51:26;;;;;;;;;0.00;0.00;;;;;;;;5027983;28;8868;-83
2023/10/14 00:53:57;;;;;;;;;1.50;0.25;;;;;;;;5028773;28;8868;-78
2023/10/14 00:56:31;;;;;;;;;1.00;0.00;;;;;;;;5030387;28;8844;-83
2023/10/14 00:58:59;;;;;;;;;0.00;0.00;;;;;;;;5017315;28;8845;-80
2023/10/14 01:01:31;;;;;;;;;0.00;0.00;;;;;;;;5027494;28;8784;-80
2023/10/14 01:04:09;;;;;;;;;0.00;0.00;;;;;;;;5028423;28;8937;-80
2023/10/14 01:06:53;;;;;;;;;1.75;0.00;;;;;;;;5026913;28;8883;-79
2023/10/14 01:09:21;;;;;;;;;2.00;0.00;;;;;;;;5028660;28;8864;-83
2023/10/14 01:11:50;;;;;;;;;0.00;0.00;;;;;;;;5030408;28;9654;-80
2023/10/14 01:14:23;;;;;;;;;0.00;0.00;;;;;;;;5032310;28;8872;-79
2023/10/14 01:16:51;;;;;;;;;0.00;0.00;;;;;;;;5028813;28;8886;-80
2023/10/14 01:19:22;;;;;;;;;0.00;0.00;;;;;;;;5028313;28;8867;-78
2023/10/14 01:21:51;;;;;;;;;0.00;0.00;;;;;;;;5029209;28;8863;-77
2023/10/14 01:24:21;;;;;;;;;0.00;0.00;;;;;;;;5029897;28;8847;-79
2023/10/14 01:27:01;;;;;;;;;0.75;0.75;;;;;;;;5029434;28;8918;-79
2023/10/14 01:29:31;;;;;;;;;1.00;1.00;;;;;;;;5030882;28;8979;-78
2023/10/14 01:32:36;;;;;;;;;0.00;0.00;;;;;;;;5031320;28;8808;-79
2023/10/14 01:35:13;;;;;;;;;0.00;0.00;;;;;;;;5023075;28;8855;-80
2023/10/14 01:37:40;;;;;;;;;2.00;0.00;;;;;;;;5027668;28;8860;-80
2023/10/14 01:40:17;;;;;;;;;0.75;0.00;;;;;;;;5032893;28;8909;-79
2023/10/14 01:42:47;;;;;;;;;0.00;0.00;;;;;;;;5034617;28;8886;-79
2023/10/14 01:45:20;;;;;;;;;0.00;0.00;;;;;;;;5031488;28;8864;-78
2023/10/14 01:47:50;;;;;;;;;0.00;0.00;;;;;;;;5021315;28;8844;-79
2023/10/14 01:50:19;;;;;;;;;0.00;0.00;;;;;;;;5034044;28;8894;-80
2023/10/14 01:52:52;;;;;;;;;3.00;0.00;;;;;;;;5035173;28;8991;-80
2023/10/14 01:55:20;;;;;;;;;0.00;0.00;;;;;;;;5035459;28;8856;-79
2023/10/14 01:57:48;;;;;;;;;0.00;0.00;;;;;;;;5035167;28;8889;-81
2023/10/14 02:00:35;;;;;;;;;0.00;0.00;;;;;;;;5034713;28;8867;-79
2023/10/14 02:03:06;;;;;;;;;0.00;0.00;;;;;;;;5031169;28;8844;-79
2023/10/14 02:05:39;;;;;;;;;1.00;1.00;;;;;;;;5029787;28;8975;-79
2023/10/14 02:08:15;;;;;;;;;0.00;0.00;;;;;;;;5030696;28;8848;-79
2023/10/14 02:10:47;;;;;;;;;1.00;1.00;;;;;;;;5031073;28;8899;-79
2023/10/14 02:13:16;;;;;;;;;0.75;0.75;;;;;;;;5031115;28;8879;-79
2023/10/14 02:15:46;;;;;;;;;0.75;0.75;;;;;;;;5030962;28;8870;-79
2023/10/14 02:18:16;;;;;;;;;0.75;0.75;;;;;;;;5030821;28;8859;-80
2023/10/14 02:20:57;;;;;;;;;1.00;1.00;;;;;;;;5031182;28;8860;-77
2023/10/14 02:23:26;;;;;;;;;0.25;0.25;;;;;;;;5031618;28;8865;-77
2023/10/14 02:25:58;;;;;;;;;2.00;0.00;;;;;;;;5030733;28;8887;-81
2023/10/14 02:28:27;;;;;;;;;0.00;0.00;;;;;;;;5030219;28;8841;-81
2023/10/14 02:31:00;;;;;;;;;1.00;1.00;;;;;;;;5017992;28;8828;-79
2023/10/14 02:33:28;;;;;;;;;3.25;0.50;;;;;;;;5030172;28;8860;-79
2023/10/14 02:35:59;;;;;;;;;0.00;0.00;;;;;;;;5030373;28;8848;-80
2023/10/14 02:38:29;;;;;;;;;0.25;0.25;;;;;;;;5030130;28;8860;-78
2023/10/14 02:41:03;;;;;;;;;1.25;1.00;;;;;;;;5029017;28;9753;-78
2023/10/14 02:43:30;;;;;;;;;0.00;0.00;;;;;;;;5030093;28;8852;-77
2023/10/14 02:46:00;;;;;;;;;1.00;1.00;;;;;;;;5017803;28;8878;-79
2023/10/14 02:48:49;;;;;;;;;0.75;0.75;;;;;;;;5031493;28;8949;-77
2023/10/14 02:51:17;;;;;;;;;1.00;1.00;;;;;;;;5030753;28;9257;-81
2023/10/14 02:53:45;;;;;;;;;1.00;1.00;;;;;;;;5029705;28;8866;-79
2023/10/14 02:56:21;;;;;;;;;1.00;1.00;;;;;;;;5029551;28;8868;-78
2023/10/14 02:58:48;;;;;;;;;2.00;0.75;;;;;;;;5029642;28;8925;-77
2023/10/14 03:01:16;;;;;;;;;0.75;0.75;;;;;;;;5027599;28;8824;-78
2023/10/14 03:03:46;;;;;;;;;1.75;1.25;;;;;;;;5029573;28;8864;-77
2023/10/14 03:06:14;;;;;;;;;1.00;1.00;;;;;;;;5030029;28;8852;-77
2023/10/14 03:08:57;;;;;;;;;1.25;1.25;;;;;;;;5029604;28;8875;-78
2023/10/14 03:11:26;;;;;;;;;3.00;0.00;;;;;;;;5030381;28;9623;-77
2023/10/14 03:13:53;;;;;;;;;1.00;1.00;;;;;;;;5029773;28;8930;-79
2023/10/14 03:16:21;;;;;;;;;0.75;0.75;;;;;;;;5031165;28;8852;-80
2023/10/14 03:18:48;;;;;;;;;1.00;1.00;;;;;;;;5030792;28;8852;-79
2023/10/14 03:21:24;;;;;;;;;0.00;0.00;;;;;;;;5030330;28;8946;-78
2023/10/14 03:23:51;;;;;;;;;3.00;0.00;;;;;;;;5027854;28;8983;-79
2023/10/14 03:26:20;;;;;;;;;1.50;1.00;;;;;;;;5029288;28;8852;-83
2023/10/14 03:28:50;;;;;;;;;2.25;2.25;;;;;;;;5029696;28;8836;-78
2023/10/14 03:31:19;;;;;;;;;0.75;0.00;;;;;;;;5030572;28;8915;-79
2023/10/14 03:33:47;;;;;;;;;2.00;2.00;;;;;;;;5032427;28;8867;-78
2023/10/14 03:36:17;;;;;;;;;5.33;5.33;;;;;;;;5034377;28;8981;-78
2023/10/14 03:38:54;;;;;;;;;3.00;1.00;;;;;;;;5033550;28;9184;-80
2023/10/14 03:41:23;;;;;;;;;1.00;0.75;;;;;;;;5033665;28;8945;-79
2023/10/14 03:43:58;;;;;;;;;1.00;0.50;;;;;;;;5032089;28;8856;-78
2023/10/14 03:46:35;;;;;;;;;0.00;0.00;;;;;;;;5030684;28;8864;-77
2023/10/14 03:49:11;;;;;;;;;2.25;1.00;;;;;;;;5029262;28;8975;-80
2023/10/14 03:51:39;;;;;;;;;0.00;0.00;;;;;;;;5028628;28;8849;-79
2023/10/14 03:54:08;;;;;;;;;0.50;0.00;;;;;;;;5029135;28;9535;-78
2023/10/14 03:56:36;;;;;;;;;0.50;0.50;;;;;;;;5017398;28;8873;-78
2023/10/14 03:59:06;;;;;;;;;1.00;1.00;;;;;;;;5027646;28;8876;-79
2023/10/14 04:01:43;;;;;;;;;0.00;0.00;;;;;;;;5027826;28;8832;-78
2023/10/14 04:04:17;;;;;;;;;0.67;0.67;;;;;;;;5028030;28;9750;-78
2023/10/14 04:06:51;;;;;;;;;0.00;0.00;;;;;;;;5028122;28;9534;-80
2023/10/14 04:09:24;;;;;;;;;0.00;0.00;;;;;;;;5028141;28;8964;-78
2023/10/14 04:11:53;;;;;;;;;0.00;0.00;;;;;;;;5029159;28;9007;-76
2023/10/14 04:14:22;;;;;;;;;2.00;0.00;;;;;;;;5030152;28;9871;-78
2023/10/14 04:16:57;;;;;;;;;0.33;0.33;;;;;;;;5028560;28;9023;-77
2023/10/14 04:19:27;;;;;;;;;0.00;0.00;;;;;;;;5028665;28;9033;-78
2023/10/14 04:21:59;;;;;;;;;0.67;0.67;;;;;;;;5027437;28;8968;-78
2023/10/14 04:24:43;;;;;;;;;1.67;1.00;;;;;;;;5028067;28;9165;-78
2023/10/14 04:27:22;;;;;;;;;0.00;0.00;;;;;;;;5027139;28;9217;-78
2023/10/14 04:29:58;;;;;;;;;1.67;1.67;;;;;;;;5027097;28;9456;-78
2023/10/14 04:32:28;;;;;;;;;1.00;1.00;;;;;;;;5027975;28;9219;-78
2023/10/14 04:34:57;;;;;;;;;1.00;1.00;;;;;;;;5027838;28;9281;-78
2023/10/14 04:37:27;;;;;;;;;3.00;1.00;;;;;;;;5021266;28;10296;-78
2023/10/14 04:39:58;;;;;;;;;0.50;0.50;;;;;;;;5025427;28;9346;-78
2023/10/14 04:42:35;;;;;;;;;3.00;0.00;;;;;;;;5029089;28;9520;-77
2023/10/14 04:45:13;;;;;;;;;1.25;1.00;;;;;;;;5026882;28;9357;-77
2023/10/14 04:47:44;;;;;;;;;2.00;0.50;;;;;;;;5027720;28;9479;-78
2023/10/14 04:50:14;;;;;;;;;1.00;1.00;;;;;;;;5027658;28;9456;-78
2023/10/14 04:52:48;;;;;;;;;0.00;0.00;;;;;;;;5027139;28;9550;-78
2023/10/14 04:55:32;;;;;;;;;0.50;0.50;;;;;;;;5027960;28;10432;-78
2023/10/14 04:58:15;;;;;;;;;0.00;0.00;;;;;;;;5026830;28;9631;-77
2023/10/14 05:00:45;;;;;;;;;2.00;0.00;;;;;;;;5030393;28;9465;-78
2023/10/14 05:03:13;;;;;;;;;0.00;0.00;;;;;;;;5030480;28;9759;-78
2023/10/14 05:05:43;;;;;;;;;1.00;1.00;;;;;;;;5031211;28;9639;-78
2023/10/14 05:08:15;;;;;;;;;2.25;0.50;;;;;;;;5032330;28;10321;-76
2023/10/14 05:10:44;;;;;;;;;1.25;1.25;;;;;;;;5032488;28;10108;-78
2023/10/14 05:13:12;;;;;;;;;1.00;1.00;;;;;;;;5033435;28;9829;-76
2023/10/14 05:15:41;;;;;;;;;0.00;0.00;;;;;;;;5033905;28;9864;-78
2023/10/14 05:18:15;;;;;;;;;0.00;0.00;;;;;;;;5034726;28;9681;-78
2023/10/14 05:21:02;;;;;;;;;0.00;0.00;;;;;;;;5034542;28;9719;-78
2023/10/14 05:23:31;;;;;;;;;0.00;0.00;;;;;;;;5034562;28;9619;-78
2023/10/14 05:25:59;;;;;;;;;1.00;0.25;;;;;;;;5033595;28;9888;-77
2023/10/14 05:28:35;;;;;;;;;2.00;0.25;;;;;;;;5031434;28;9853;-78
2023/10/14 05:31:08;;;;;;;;;1.00;1.00;;;;;;;;5030162;28;10569;-79
2023/10/14 05:33:36;;;;;;;;;0.00;0.00;;;;;;;;5029661;28;9859;-78
2023/10/14 05:36:10;;;;;;;;;1.00;1.00;;;;;;;;5032656;28;9930;-81
2023/10/14 05:38:38;;;;;;;;;2.50;1.00;;;;;;;;5021200;28;9971;-79
2023/10/14 05:41:11;;;;;;;;;2.00;0.00;;;;;;;;5031932;28;9787;-78
2023/10/14 05:43:38;;;;;;;;;0.00;0.00;;;;;;;;5030912;28;9850;-78
2023/10/14 05:46:12;;;;;;;;;0.00;0.00;;;;;;;;5030170;28;9709;-77
2023/10/14 05:48:40;;;;;;;;;0.00;0.00;;;;;;;;5030985;28;9918;-79
2023/10/14 05:51:07;;;;;;;;;0.75;0.75;;;;;;;;5029844;28;9926;-78
2023/10/14 05:53:34;;;;;;;;;2.00;0.75;;;;;;;;5030451;28;10139;-78
2023/10/14 05:56:09;;;;;;;;;0.00;0.00;;;;;;;;5029979;28;10089;-77
2023/10/14 05:58:40;;;;;;;;;0.00;0.00;;;;;;;;5029664;28;10007;-77
2023/10/14 06:01:11;;;;;;;;;0.75;0.75;;;;;;;;5029356;28;9890;-78
2023/10/14 06:03:40;;;;;;;;;3.75;1.00;;;;;;;;5031263;28;10038;-79
2023/10/14 06:06:09;;;;;;;;;0.25;0.25;;;;;;;;5031419;28;10105;-78
2023/10/14 06:08:37;;;;;;;;;4.00;1.00;;;;;;;;5030544;28;10045;-78
2023/10/14 06:11:05;;;;;;;;;2.00;0.00;;;;;;;;5029554;28;9873;-79
2023/10/14 06:13:32;;;;;;;;;0.00;0.00;;;;;;;;5029888;28;9861;-80
2023/10/14 06:16:04;;;;;;;;;0.75;0.75;;;;;;;;5029597;28;10000;-77
2023/10/14 06:18:34;;;;;;;;;0.00;0.00;;;;;;;;5030047;28;10015;-79
2023/10/14 06:21:05;;;;;;;;;1.25;0.75;;;;;;;;5019826;28;10138;-79
2023/10/14 06:23:33;;;;;;;;;2.50;1.50;;;;;;;;5029341;28;10211;-79
2023/10/14 06:26:03;;;;;;;;;0.00;0.00;;;;;;;;5029722;28;9936;-76
2023/10/14 06:28:30;;;;;;;;;2.00;0.75;;;;;;;;5029303;28;9839;-78
2023/10/14 06:31:00;;;;;;;;;1.50;1.00;;;;;;;;5030033;28;9845;-76
2023/10/14 06:33:28;;;;;;;;;2.00;1.00;;;;;;;;5031080;28;10882;-77
2023/10/14 06:36:07;;;;;;;;;0.00;0.00;;;;;;;;5030038;28;10147;-77
2023/10/14 06:38:37;;;;;;;;;1.50;0.25;;;;;;;;5029725;28;10152;-77
2023/10/14 06:41:05;;;;;;;;;1.00;1.00;;;;;;;;5029512;28;10065;-77
2023/10/14 06:43:33;;;;;;;;;0.00;0.00;;;;;;;;5029393;28;10938;-74
2023/10/14 06:46:04;;;;;;;;;0.00;0.00;;;;;;;;5029071;28;10892;-77
2023/10/14 06:48:33;;;;;;;;;1.75;1.00;;;;;;;;5018658;28;9933;-77
2023/10/14 06:51:04;;;;;;;;;0.75;0.75;;;;;;;;5029192;28;10023;-76
2023/10/14 06:53:39;;;;;;;;;1.00;1.00;;;;;;;;5030736;28;9917;-76
2023/10/14 06:56:11;;;;;;;;;0.50;0.50;;;;;;;;5031876;28;10013;-77
2023/10/14 06:58:39;;;;;;;;;1.75;1.75;;;;;;;;5033062;28;10052;-76
2023/10/14 07:01:07;;;;;;;;;2.00;2.00;;;;;;;;5032422;28;9706;-80
2023/10/14 07:03:35;;;;;;;;;2.00;2.00;;;;;;;;5033204;28;9855;-75
2023/10/14 07:06:04;;;;;;;;;2.00;0.50;;;;;;;;5033392;28;9855;-78
2023/10/14 07:08:36;;;;;;;;;1.00;1.00;;;;;;;;5029373;28;9783;-78
2023/10/14 07:11:06;;;;;;;;;2.00;0.00;;;;;;;;5028596;28;11196;-76
2023/10/14 07:13:38;;;;;;;;;0.25;0.25;;;;;;;;5029075;28;9886;-77
2023/10/14 07:16:06;;;;;;;;;0.25;0.25;;;;;;;;5029045;28;9821;-77
2023/10/14 07:18:36;;;;;;;;;1.00;1.00;;;;;;;;5028683;28;9528;-76
2023/10/14 07:21:08;;;;;;;;;1.00;1.00;;;;;;;;5028993;28;10170;-82
2023/10/14 07:23:36;;;;;;;;;3.00;1.00;;;;;;;;5028686;28;9633;-80
2023/10/14 07:26:11;;;;;;;;;3.00;1.00;;;;;;;;5029180;28;9517;-77
2023/10/14 07:28:42;;;;;;;;;117.25;100.75;;;;;;;;5030904;28;9386;-79
2023/10/14 07:31:11;;;;;;;;;0.00;0.00;;;;;;;;5029656;28;11592;-79
2023/10/14 07:33:39;;;;;;;;;1.00;1.00;;;;;;;;5028837;28;9214;-76
2023/10/14 07:36:07;;;;;;;;;0.00;0.00;;;;;;;;5027960;28;10074;-82
2023/10/14 07:38:35;;;;;;;;;1.00;1.00;;;;;;;;5017649;28;9232;-77
2023/10/14 07:41:05;;;;;;;;;2.67;1.00;;;;;;;;5028363;28;9186;-76
2023/10/14 07:43:33;;;;;;;;;1.00;1.00;;;;;;;;5028805;28;9196;-78
2023/10/14 07:46:05;;;;;;;;;1.00;1.00;;;;;;;;5028587;28;9967;-79
2023/10/14 07:48:33;;;;;;;;;2.67;1.00;;;;;;;;5028593;28;9026;-77
2023/10/14 07:51:06;;;;;;;;;3.00;1.50;;;;;;;;5029058;28;9022;-76
2023/10/14 07:53:33;;;;;;;;;1.00;1.00;;;;;;;;5030233;28;8862;-76
2023/10/14 07:56:05;;;;;;;;;2.25;1.75;;;;;;;;5030416;28;8906;-76
2023/10/14 07:58:32;;;;;;;;;1.25;0.75;;;;;;;;5029621;28;8865;-75
2023/10/14 08:01:06;;;;;;;;;1.00;1.00;;;;;;;;5028662;28;8810;-81
2023/10/14 08:03:36;;;;;;;;;0.00;0.00;;;;;;;;5029098;28;8941;-79
2023/10/14 08:06:05;;;;;;;;;1.67;1.00;;;;;;;;5028090;28;8870;-78
2023/10/14 08:08:42;;;;;;;;;2.75;1.25;;;;;;;;5028405;28;9841;-78
2023/10/14 08:11:12;;;;;;;;;2.50;1.00;;;;;;;;5016399;28;8865;-82
2023/10/14 08:13:40;;;;;;;;;2.50;1.00;;;;;;;;5027889;28;8866;-77
2023/10/14 08:16:08;;;;;;;;;2.75;2.75;;;;;;;;5028512;28;8907;-74
2023/10/14 08:18:37;;;;;;;;;0.00;0.00;;;;;;;;5028551;28;8873;-78
2023/10/14 08:21:04;;;;;;;;;2.00;2.00;;;;;;;;5029252;28;8973;-80
2023/10/14 08:23:34;;;;;;;;;3.25;1.00;;;;;;;;5030782;28;8834;-74
2023/10/14 08:26:03;;;;;;;;;1.00;1.00;;;;;;;;5029524;28;9747;-76
2023/10/14 08:28:32;;;;;;;;;3.50;1.00;;;;;;;;5028781;28;8866;-77
2023/10/14 08:31:04;;;;;;;;;2.00;0.00;;;;;;;;5028085;28;8844;-77
2023/10/14 08:33:31;;;;;;;;;0.25;0.00;;;;;;;;5028870;28;9619;-77
2023/10/14 08:36:01;;;;;;;;;1.50;1.50;;;;;;;;5030292;28;8844;-77
2023/10/14 08:38:28;;;;;;;;;1.00;1.00;;;;;;;;5029025;28;8940;-77
2023/10/14 08:40:56;;;;;;;;;1.00;1.00;;;;;;;;5029059;28;8868;-76
2023/10/14 08:43:26;;;;;;;;;3.00;1.00;;;;;;;;5028967;28;8863;-77
2023/10/14 08:45:54;;;;;;;;;1.50;1.00;;;;;;;;5031313;28;9024;-76
2023/10/14 08:48:24;;;;;;;;;3.00;1.00;;;;;;;;5027661;28;8872;-79
2023/10/14 08:50:52;;;;;;;;;1.75;1.00;;;;;;;;5028486;28;8964;-78
2023/10/14 08:53:22;;;;;;;;;1.75;0.75;;;;;;;;5026911;28;8856;-79
2023/10/14 08:55:52;;;;;;;;;1.00;1.00;;;;;;;;5028002;28;8902;-77
2023/10/14 08:58:22;;;;;;;;;3.25;1.75;;;;;;;;5027610;28;8844;-79
2023/10/14 09:00:52;;;;;;;;;2.50;2.50;;;;;;;;5026761;28;8788;-76
2023/10/14 09:03:25;;;;;;;;;0.00;0.00;;;;;;;;5027533;28;8859;-77
2023/10/14 09:05:55;;;;;;;;;1.00;0.50;;;;;;;;5027422;28;9638;-76
2023/10/14 09:08:40;;;;;;;;;0.25;0.25;;;;;;;;5028090;28;8868;-75
2023/10/14 09:11:36;;;;;;;;;1.00;1.00;;;;;;;;5027170;28;8895;-76
2023/10/14 09:14:14;;;;;;;;;0.00;0.00;;;;;;;;5028648;28;8868;-76
2023/10/14 09:16:54;;;;;;;;;0.25;0.25;;;;;;;;5029168;28;8856;-75
2023/10/14 09:19:23;;;;;;;;;2.00;2.00;;;;;;;;5026160;28;8971;-74
2023/10/14 09:21:57;;;;;;;;;0.00;0.00;;;;;;;;5028224;28;8890;-79
2023/10/14 09:24:27;;;;;;;;;0.00;0.00;;;;;;;;5028057;28;8868;-80
2023/10/14 09:26:58;;;;;;;;;4.00;1.00;;;;;;;;5026847;28;8882;-79
2023/10/14 09:29:25;;;;;;;;;0.50;0.50;;;;;;;;5027293;28;8895;-78
2023/10/14 09:31:52;;;;;;;;;3.00;0.00;;;;;;;;5026057;28;9240;-79
2023/10/14 09:34:23;;;;;;;;;0.00;0.00;;;;;;;;5027479;28;8988;-76
2023/10/14 09:36:52;;;;;;;;;0.00;0.00;;;;;;;;5023946;28;8867;-76
2023/10/14 09:39:24;;;;;;;;;0.25;0.25;;;;;;;;5020026;28;8990;-78
2023/10/14 09:41:53;;;;;;;;;0.50;0.00;;;;;;;;5026423;28;8848;-77
2023/10/14 09:44:22;;;;;;;;;0.00;0.00;;;;;;;;5026989;28;8861;-79
2023/10/14 09:46:52;;;;;;;;;0.00;0.00;;;;;;;;5028907;28;8864;-80
2023/10/14 09:49:22;;;;;;;;;1.75;1.75;;;;;;;;5029232;28;8878;-81
2023/10/14 09:51:50;;;;;;;;;2.00;1.00;;;;;;;;5031104;28;8836;-77
2023/10/14 09:54:18;;;;;;;;;1.50;0.75;;;;;;;;5030738;28;8982;-76
2023/10/14 09:56:46;;;;;;;;;1.25;0.00;;;;;;;;5030506;28;8882;-76
2023/10/14 09:59:15;;;;;;;;;0.00;0.00;;;;;;;;5030260;28;8868;-78
2023/10/14 10:01:43;;;;;;;;;2.25;2.25;;;;;;;;5033703;28;8885;-76
2023/10/14 10:04:18;;;;;;;;;1.00;0.00;;;;;;;;5030304;28;8991;-76
2023/10/14 10:06:51;;;;;;;;;0.00;0.00;;;;;;;;5030826;28;8877;-76
2023/10/14 10:09:49;;;;;;;;;0.00;0.00;;;;;;;;5031260;28;8887;-79
2023/10/14 10:12:20;;;;;;;;;0.20;0.20;;;;;;;;5030175;28;8830;-76
2023/10/14 10:14:50;;;;;;;;;0.00;0.00;;;;;;;;5032808;28;9669;-77
2023/10/14 10:17:17;;;;;;;;;0.80;0.80;;;;;;;;5035569;28;8888;-78
2023/10/14 10:20:09;;;;;;;;;0.00;0.00;;;;;;;;5034978;28;8861;-79
2023/10/14 10:22:43;;;;;;;;;0.00;0.00;;;;;;;;5023576;28;8865;-77
2023/10/14 10:25:14;;;;;;;;;1.60;0.00;;;;;;;;5035475;28;8846;-75
2023/10/14 10:27:45;;;;;;;;;0.00;0.00;;;;;;;;5032822;28;8869;-79
2023/10/14 10:30:17;;;;;;;;;0.00;0.00;;;;;;;;5029205;28;8951;-74
2023/10/14 10:32:48;;;;;;;;;0.75;0.75;;;;;;;;5029781;28;9726;-79
2023/10/14 10:35:20;;;;;;;;;0.25;0.25;;;;;;;;5028911;28;8865;-75
2023/10/14 10:37:51;;;;;;;;;0.00;0.00;;;;;;;;5018718;28;8856;-74
2023/10/14 10:40:22;;;;;;;;;0.00;0.00;;;;;;;;5030106;28;8984;-75
2023/10/14 10:42:56;;;;;;;;;0.00;0.00;;;;;;;;5031309;28;8887;-75
2023/10/14 10:45:29;;;;;;;;;0.00;0.00;;;;;;;;5030694;28;8875;-78
2023/10/14 10:47:57;;;;;;;;;3.00;0.00;;;;;;;;5029560;28;8857;-78
2023/10/14 10:50:27;;;;;;;;;0.00;0.00;;;;;;;;5029521;28;9648;-78
2023/10/14 10:53:16;;;;;;;;;0.75;0.25;;;;;;;;5029262;28;9387;-76
2023/10/14 10:55:46;;;;;;;;;0.75;0.00;;;;;;;;5029039;28;8876;-78
2023/10/14 10:58:14;;;;;;;;;0.00;0.00;;;;;;;;5029255;28;8884;-77
2023/10/14 11:00:45;;;;;;;;;0.00;0.00;;;;;;;;5028228;28;8768;-77
2023/10/14 11:03:15;;;;;;;;;3.50;1.00;;;;;;;;5029286;28;8870;-74
2023/10/14 11:05:44;;;;;;;;;0.25;0.25;;;;;;;;5029033;28;8848;-78
2023/10/14 11:08:15;;;;;;;;;0.00;0.00;;;;;;;;5029616;28;8894;-74
2023/10/14 11:10:43;;;;;;;;;0.25;0.25;;;;;;;;5030268;28;8860;-75
2023/10/14 11:13:12;;;;;;;;;1.75;1.00;;;;;;;;5030182;28;8883;-74
2023/10/14 11:15:39;;;;;;;;;0.00;0.00;;;;;;;;5029354;28;8866;-75
2023/10/14 11:18:09;;;;;;;;;0.00;0.00;;;;;;;;5028867;28;8877;-77
2023/10/14 11:20:43;;;;;;;;;1.25;1.25;;;;;;;;5028755;28;8840;-76
2023/10/14 11:23:11;;;;;;;;;2.25;0.75;;;;;;;;5028870;28;8998;-76
2023/10/14 11:25:40;;;;;;;;;1.75;0.00;;;;;;;;5029391;28;8874;-75
2023/10/14 11:28:08;;;;;;;;;0.25;0.00;;;;;;;;5027874;28;8857;-76
2023/10/14 11:30:41;;;;;;;;;2.00;0.00;;;;;;;;5028874;28;8780;-75
2023/10/14 11:33:15;;;;;;;;;1.50;0.75;;;;;;;;5028722;28;8882;-75
2023/10/14 11:35:42;;;;;;;;;1.25;1.00;;;;;;;;5029111;28;8872;-75
2023/10/14 11:38:14;;;;;;;;;1.00;1.00;;;;;;;;5018202;28;8910;-76
2023/10/14 11:40:45;;;;;;;;;0.25;0.25;;;;;;;;5029741;28;8941;-75
2023/10/14 11:43:12;;;;;;;;;1.00;1.00;;;;;;;;5028899;28;8852;-75
2023/10/14 11:45:43;;;;;;;;;1.75;1.75;;;;;;;;5028705;28;8872;-75
2023/10/14 11:48:22;;;;;;;;;0.75;0.75;;;;;;;;5028286;28;8974;-75
2023/10/14 11:50:52;;;;;;;;;1.00;1.00;;;;;;;;5029340;28;9382;-75
2023/10/14 11:53:28;;;;;;;;;0.00;0.00;;;;;;;;5017951;28;8950;-78
2023/10/14 11:55:59;;;;;;;;;0.00;0.00;;;;;;;;5031070;28;8868;-75
2023/10/14 11:58:27;;;;;;;;;0.00;0.00;;;;;;;;5033696;28;8860;-76
2023/10/14 12:00:55;;;;;;;;;1.25;0.50;;;;;;;;5032360;28;8843;-75
2023/10/14 12:03:25;;;;;;;;;0.75;0.00;;;;;;;;5034229;28;8891;-76
2023/10/14 12:05:57;;;;;;;;;0.25;0.25;;;;;;;;5033148;28;8923;-78
2023/10/14 12:08:25;;;;;;;;;0.50;0.50;;;;;;;;5034034;28;8883;-75
2023/10/14 12:10:54;;;;;;;;;0.75;0.75;;;;;;;;5031018;28;8880;-80
2023/10/14 12:13:26;;;;;;;;;1.75;0.75;;;;;;;;5026794;28;8858;-82
2023/10/14 12:15:53;;;;;;;;;1.75;0.00;;;;;;;;5026557;28;8876;-85
2023/10/14 12:18:21;;;;;;;;;0.75;0.75;;;;;;;;5028297;28;8883;-83
2023/10/14 12:20:50;;;;;;;;;0.25;0.25;;;;;;;;5014820;28;8866;-81
2023/10/14 12:23:19;;;;;;;;;0.75;0.75;;;;;;;;5028136;28;9737;-77
2023/10/14 12:25:47;;;;;;;;;1.00;1.00;;;;;;;;5028238;28;8864;-74
2023/10/14 12:28:17;;;;;;;;;2.75;1.25;;;;;;;;5027736;28;8850;-75
2023/10/14 12:30:46;;;;;;;;;0.25;0.25;;;;;;;;5028024;28;8905;-77
2023/10/14 12:33:20;;;;;;;;;0.00;0.00;;;;;;;;5028256;28;8855;-74
2023/10/14 12:35:52;;;;;;;;;1.00;1.00;;;;;;;;5030089;28;8855;-77
2023/10/14 12:38:22;;;;;;;;;0.75;0.00;;;;;;;;5030781;28;8864;-75
2023/10/14 12:40:50;;;;;;;;;0.00;0.00;;;;;;;;5029835;28;8926;-76
2023/10/14 12:43:18;;;;;;;;;2.25;0.75;;;;;;;;5028408;28;8966;-76
2023/10/14 12:45:49;;;;;;;;;2.25;1.50;;;;;;;;5027987;28;8852;-77
2023/10/14 12:48:24;;;;;;;;;0.00;0.00;;;;;;;;5027829;28;8876;-79
2023/10/14 12:50:54;;;;;;;;;0.75;0.75;;;;;;;;5027990;28;8879;-78
2023/10/14 12:53:21;;;;;;;;;0.75;0.75;;;;;;;;5028692;28;8887;-77
2023/10/14 12:55:49;;;;;;;;;1.50;0.00;;;;;;;;5030860;28;9802;-76
2023/10/14 12:58:19;;;;;;;;;0.00;0.00;;;;;;;;5018011;28;8864;-77
2023/10/14 13:00:49;;;;;;;;;1.50;1.00;;;;;;;;5026900;28;8875;-75
2023/10/14 13:03:17;;;;;;;;;0.50;0.50;;;;;;;;5028643;28;8848;-77
2023/10/14 13:05:46;;;;;;;;;0.50;0.00;;;;;;;;5028559;28;8987;-76
2023/10/14 13:08:18;;;;;;;;;1.75;0.50;;;;;;;;5027673;28;8948;-76
2023/10/14 13:10:46;;;;;;;;;0.75;0.75;;;;;;;;5026812;28;8886;-77
2023/10/14 13:13:14;;;;;;;;;1.00;1.00;;;;;;;;5027303;28;8864;-78
2023/10/14 13:15:53;;;;;;;;;0.25;0.25;;;;;;;;5026822;28;8871;-79
2023/10/14 13:18:24;;;;;;;;;0.00;0.00;;;;;;;;5027722;28;9799;-76
2023/10/14 13:20:51;;;;;;;;;2.00;1.00;;;;;;;;5026799;28;8922;-75
2023/10/14 13:23:25;;;;;;;;;0.00;0.00;;;;;;;;5029342;28;8890;-75
2023/10/14 13:25:52;;;;;;;;;2.00;0.60;;;;;;;;5021431;28;8864;-77
2023/10/14 13:28:21;;;;;;;;;0.00;0.00;;;;;;;;5030236;28;8860;-73
2023/10/14 13:30:49;;;;;;;;;0.20;0.20;;;;;;;;5030672;28;9662;-74
2023/10/14 13:33:18;;;;;;;;;1.50;1.00;;;;;;;;5031317;28;9854;-74
2023/10/14 13:35:46;;;;;;;;;0.25;0.25;;;;;;;;5032661;28;8934;-81
2023/10/14 13:38:13;;;;;;;;;1.00;1.00;;;;;;;;5023911;28;8848;-75
2023/10/14 13:40:42;;;;;;;;;0.00;0.00;;;;;;;;5035190;28;8852;-74
2023/10/14 13:43:13;;;;;;;;;0.00;0.00;;;;;;;;5034673;28;8885;-74
2023/10/14 13:45:43;;;;;;;;;0.00;0.00;;;;;;;;5035809;28;8983;-75
2023/10/14 13:48:14;;;;;;;;;1.00;1.00;;;;;;;;5034848;28;8882;-74
2023/10/14 13:50:42;;;;;;;;;0.75;0.75;;;;;;;;5030537;28;8883;-75
2023/10/14 13:53:17;;;;;;;;;2.00;2.00;;;;;;;;5029608;28;8860;-74
2023/10/14 13:55:46;;;;;;;;;2.00;1.00;;;;;;;;5030158;28;8845;-74
2023/10/14 13:58:13;;;;;;;;;1.75;1.25;;;;;;;;5019060;28;8868;-75
2023/10/14 14:00:41;;;;;;;;;1.00;1.00;;;;;;;;5029421;28;8920;-76
2023/10/14 14:03:10;;;;;;;;;0.00;0.00;;;;;;;;5030512;28;8860;-76
2023/10/14 14:05:38;;;;;;;;;0.00;0.00;;;;;;;;5017938;28;8873;-75
2023/10/14 14:08:08;;;;;;;;;0.00;0.00;;;;;;;;5030521;28;8941;-76
2023/10/14 14:10:36;;;;;;;;;2.00;0.75;;;;;;;;5030243;28;8958;-75
2023/10/14 14:13:05;;;;;;;;;0.25;0.25;;;;;;;;5030176;28;9710;-75
2023/10/14 14:15:32;;;;;;;;;0.00;0.00;;;;;;;;5029761;28;9160;-75
2023/10/14 14:18:00;;;;;;;;;0.40;0.40;;;;;;;;5029727;28;8864;-75
2023/10/14 14:20:27;;;;;;;;;0.00;0.00;;;;;;;;5029535;28;8886;-76
2023/10/14 14:22:58;;;;;;;;;0.00;0.00;;;;;;;;5029647;28;8879;-77
2023/10/14 14:25:25;;;;;;;;;1.00;1.00;;;;;;;;5030065;28;8864;-75
2023/10/14 14:27:53;;;;;;;;;1.75;0.25;;;;;;;;5029095;28;8880;-75
2023/10/14 14:30:22;;;;;;;;;1.00;1.00;;;;;;;;5028819;28;8875;-76
2023/10/14 14:32:51;;;;;;;;;0.00;0.00;;;;;;;;5029491;28;8990;-76
2023/10/14 14:35:18;;;;;;;;;0.75;0.75;;;;;;;;5028926;28;9025;-76
2023/10/14 14:37:45;;;;;;;;;0.25;0.25;;;;;;;;5019033;28;8847;-75
2023/10/14 14:40:16;;;;;;;;;2.00;1.00;;;;;;;;5028918;28;8883;-75
2023/10/14 14:42:44;;;;;;;;;0.00;0.00;;;;;;;;5029534;28;9014;-74
2023/10/14 14:45:14;;;;;;;;;2.75;2.00;;;;;;;;5029862;28;8878;-75
2023/10/14 14:47:44;;;;;;;;;1.25;0.25;;;;;;;;5029528;28;8852;-75
2023/10/14 14:50:15;;;;;;;;;0.75;0.75;;;;;;;;5030014;28;8852;-78
2023/10/14 14:52:43;;;;;;;;;0.75;0.75;;;;;;;;5029131;28;8867;-75
2023/10/14 14:55:14;;;;;;;;;1.25;1.25;;;;;;;;5030032;28;8864;-78
2023/10/14 14:57:44;;;;;;;;;1.00;0.00;;;;;;;;5029615;28;8848;-76
2023/10/14 15:00:15;;;;;;;;;2.00;0.00;;;;;;;;5030838;28;8937;-75
2023/10/14 15:02:51;;;;;;;;;0.00;0.00;;;;;;;;5029474;28;8850;-76
2023/10/14 15:05:18;;;;;;;;;0.00;0.00;;;;;;;;5029797;28;8861;-76
2023/10/14 15:07:48;;;;;;;;;0.25;0.00;;;;;;;;5023661;28;8865;-75
2023/10/14 15:10:15;;;;;;;;;0.00;0.00;;;;;;;;5024255;28;8869;-76
2023/10/14 15:12:43;;;;;;;;;0.00;0.00;;;;;;;;5030230;28;8841;-76
2023/10/14 15:15:15;;;;;;;;;0.00;0.00;;;;;;;;5030188;28;8984;-76
2023/10/14 15:17:43;;;;;;;;;1.50;1.50;;;;;;;;5020379;28;8915;-75